Time;durP1;ratioP1;P1;durP2;ratioP2;P2;SDS_P1;SDS_P2;PMS_P1;PMS_P2;Temp;Humidity;BMP_temperature;BMP_pressure;BME280_temperature;BME280_humidity;BME280_pressure;Samples;Min_cycle;Max_cycle;Signal;HPM_P1;HPM_P2
2021/03/06 00:00:06;;;;;;;3.63;1.15;;;;;;;29.82;30.44;99614.31;5033278;28;20674;-62
2021/03/06 00:02:32;;;;;;;2.67;1.10;;;;;;;30.03;30.37;99618.22;5032802;28;20200;-63
2021/03/06 00:04:59;;;;;;;4.80;1.65;;;;;;;30.37;29.61;99616.94;5032850;28;20262;-62
2021/03/06 00:07:25;;;;;;;5.80;1.50;;;;;;;29.90;30.42;99621.53;5032886;28;20315;-62
2021/03/06 00:09:52;;;;;;;6.45;1.30;;;;;;;29.40;30.99;99615.59;5032658;28;20254;-62
2021/03/06 00:12:18;;;;;;;2.88;1.55;;;;;;;30.65;29.17;99614.44;5032723;28;20208;-62
2021/03/06 00:14:44;;;;;;;3.50;1.20;;;;;;;30.00;30.02;99615.88;5032482;28;20761;-63
2021/03/06 00:17:10;;;;;;;8.13;1.65;;;;;;;29.66;30.76;99614.41;5032214;28;20240;-63
2021/03/06 00:19:36;;;;;;;3.63;1.17;;;;;;;30.92;28.89;99623.75;5031972;28;20353;-63
2021/03/06 00:22:02;;;;;;;5.28;1.30;;;;;;;29.99;30.07;99619.59;5032158;28;20208;-63
2021/03/06 00:24:29;;;;;;;5.32;1.20;;;;;;;29.68;30.44;99626.69;5032059;28;20310;-63
2021/03/06 00:26:56;;;;;;;2.10;0.90;;;;;;;30.26;30.10;99621.72;5031867;28;20243;-63
2021/03/06 00:29:22;;;;;;;4.03;1.33;;;;;;;30.15;29.79;99619.47;5032139;28;20604;-63
2021/03/06 00:31:48;;;;;;;2.30;1.02;;;;;;;29.64;30.65;99624.53;5032034;28;20693;-62
2021/03/06 00:34:14;;;;;;;3.20;1.17;;;;;;;29.29;31.07;99616.81;5032424;28;20234;-63
2021/03/06 00:36:40;;;;;;;2.10;1.20;;;;;;;30.39;29.45;99610.34;5032343;28;20295;-63
2021/03/06 00:39:07;;;;;;;4.95;0.98;;;;;;;29.56;30.42;99614.66;5032325;28;20515;-63
2021/03/06 00:41:34;;;;;;;1.52;0.90;;;;;;;29.36;30.70;99614.25;5032316;28;20294;-63
2021/03/06 00:44:01;;;;;;;3.58;0.82;;;;;;;30.72;28.82;99615.38;5031485;28;20693;-63
2021/03/06 00:46:28;;;;;;;3.38;1.08;;;;;;;29.75;30.46;99616.03;5032156;28;20621;-62
2021/03/06 00:48:54;;;;;;;3.65;1.00;;;;;;;29.49;30.67;99611.84;5032072;28;20339;-63
2021/03/06 00:51:20;;;;;;;2.63;1.05;;;;;;;30.45;29.55;99619.53;5031951;28;20271;-62
2021/03/06 00:53:46;;;;;;;7.15;1.10;;;;;;;30.00;29.66;99618.59;5031590;28;20581;-63
2021/03/06 00:56:13;;;;;;;2.15;1.17;;;;;;;29.49;30.44;99611.84;5031466;28;20204;-60
2021/03/06 00:58:39;;;;;;;3.67;1.10;;;;;;;29.17;30.93;99615.53;5032083;28;20235;-63
2021/03/06 01:01:07;;;;;;;2.92;0.98;;;;;;;30.37;29.43;99612.34;5031602;28;20290;-60
2021/03/06 01:03:33;;;;;;;3.08;0.85;;;;;;;29.35;30.51;99607.19;5031472;28;20253;-63
2021/03/06 01:05:59;;;;;;;2.75;1.20;;;;;;;29.25;30.76;99607.41;5031137;28;20224;-63
2021/03/06 01:08:25;;;;;;;2.85;1.00;;;;;;;30.69;29.05;99609.50;5031070;28;20571;-64
2021/03/06 01:10:53;;;;;;;3.80;1.23;;;;;;;29.85;29.90;99607.75;5031177;28;20215;-63
2021/03/06 01:13:20;;;;;;;4.53;1.10;;;;;;;29.29;30.61;99599.81;5031257;28;20204;-64
2021/03/06 01:15:46;;;;;;;3.08;0.90;;;;;;;30.66;29.04;99608.03;5031393;28;20307;-63
2021/03/06 01:18:13;;;;;;;2.60;1.20;;;;;;;30.07;29.50;99603.34;5030842;28;20231;-63
2021/03/06 01:20:39;;;;;;;3.30;1.02;;;;;;;29.58;30.14;99600.97;5031250;28;20211;-62
2021/03/06 01:23:05;;;;;;;2.95;1.25;;;;;;;29.82;30.11;99598.16;5031126;28;20234;-63
2021/03/06 01:25:32;;;;;;;2.88;1.20;;;;;;;30.01;29.61;99606.75;5030919;28;20389;-64
2021/03/06 01:27:58;;;;;;;1.98;1.00;;;;;;;29.52;30.23;99595.28;5031136;28;20393;-63
2021/03/06 01:30:25;;;;;;;2.30;1.08;;;;;;;29.19;30.77;99601.91;5031038;28;20204;-63
2021/03/06 01:32:52;;;;;;;3.00;1.00;;;;;;;30.50;28.97;99603.63;5030656;28;20239;-64
2021/03/06 01:35:21;;;;;;;4.13;1.27;;;;;;;29.49;30.30;99601.06;5030659;28;20698;-64
2021/03/06 01:37:47;;;;;;;3.75;1.17;;;;;;;29.39;30.46;99597.72;5030666;28;20200;-64
2021/03/06 01:40:15;;;;;;;2.15;1.15;;;;;;;30.89;28.23;99604.38;5030490;28;20219;-64
2021/03/06 01:42:42;;;;;;;5.15;1.02;;;;;;;29.81;29.59;99596.50;5031039;28;20519;-71
2021/03/06 01:45:10;;;;;;;1.85;1.10;;;;;;;29.48;29.98;99596.69;5030437;28;20231;-63
2021/03/06 01:47:37;;;;;;;4.35;1.15;;;;;;;30.19;29.32;99599.16;5030650;28;20224;-63
2021/03/06 01:50:05;;;;;;;2.97;1.00;;;;;;;30.14;29.17;99598.88;5030692;28;20219;-63
2021/03/06 01:52:33;;;;;;;2.47;0.85;;;;;;;29.52;30.17;99608.75;5031411;28;20305;-63
2021/03/06 01:54:59;;;;;;;2.40;1.08;;;;;;;29.24;30.64;99599.50;5030447;28;20583;-64
2021/03/06 01:57:25;;;;;;;2.88;1.00;;;;;;;30.44;28.81;99601.66;5032554;28;20295;-63
2021/03/06 01:59:52;;;;;;;3.92;1.00;;;;;;;29.73;29.69;99599.22;5034498;28;20188;-63
2021/03/06 02:02:19;;;;;;;1.27;0.88;;;;;;;29.32;30.29;99596.78;5035045;28;20271;-63
2021/03/06 02:04:45;;;;;;;3.30;1.30;;;;;;;30.79;28.21;99586.63;5035045;28;20312;-63
2021/03/06 02:07:11;;;;;;;3.15;0.90;;;;;;;30.01;29.27;99585.19;5034773;28;20230;-63
2021/03/06 02:09:38;;;;;;;1.48;0.70;;;;;;;29.37;30.24;99588.16;5034776;28;20290;-63
2021/03/06 02:12:14;;;;;;;1.98;0.98;;;;;;;30.73;28.82;99589.22;5035394;28;20212;-63
2021/03/06 02:15:02;;;;;;;11.32;1.00;;;;;;;29.88;29.52;99591.22;5034451;28;20269;-62
2021/03/06 02:17:35;;;;;;;2.58;1.25;;;;;;;29.37;30.24;99580.91;5034912;28;20192;-61
2021/03/06 02:20:26;;;;;;;2.97;1.20;;;;;;;30.98;28.27;99585.22;5034644;28;20298;-63
2021/03/06 02:23:26;;;;;;;2.22;1.00;;;;;;;29.92;29.57;99583.59;5021999;28;20203;-63
2021/03/06 02:26:17;;;;;;;2.83;0.80;;;;;;;29.26;30.25;99578.63;5034705;28;20312;-63
2021/03/06 02:28:50;;;;;;;2.40;1.00;;;;;;;30.56;28.49;99578.63;5034279;28;20652;-63
2021/03/06 02:31:18;;;;;;;2.95;1.10;;;;;;;29.77;29.46;99570.91;5034286;28;20646;-63
2021/03/06 02:33:51;;;;;;;2.28;0.90;;;;;;;29.42;30.13;99573.13;5034189;28;20215;-60
2021/03/06 02:36:23;;;;;;;2.72;0.90;;;;;;;30.72;28.61;99568.66;5034355;28;20199;-63
2021/03/06 02:38:53;;;;;;;2.50;1.08;;;;;;;29.95;29.12;99575.16;5034678;28;20268;-62
2021/03/06 02:41:20;;;;;;;2.17;0.93;;;;;;;29.68;29.77;99574.66;5034301;28;20184;-60
2021/03/06 02:43:47;;;;;;;2.60;0.98;;;;;;;29.99;29.39;99573.75;5034086;28;20231;-63
2021/03/06 02:46:13;;;;;;;2.35;0.95;;;;;;;30.26;28.85;99573.16;5034491;28;20287;-64
2021/03/06 02:48:40;;;;;;;1.98;0.95;;;;;;;29.52;29.85;99568.34;5034055;28;20247;-64
2021/03/06 02:51:07;;;;;;;1.42;1.00;;;;;;;29.18;30.32;99568.75;5033565;28;20291;-63
2021/03/06 02:53:33;;;;;;;2.80;0.90;;;;;;;30.49;28.72;99577.66;5034018;28;20283;-63
2021/03/06 02:55:59;;;;;;;1.95;0.95;;;;;;;29.79;29.48;99570.72;5034162;28;20254;-64
2021/03/06 02:58:39;;;;;;;3.10;1.10;;;;;;;29.38;30.11;99574.53;5033792;28;20226;-63
2021/03/06 03:01:11;;;;;;;3.08;0.93;;;;;;;28.74;30.99;99566.56;5033670;28;20624;-63
2021/03/06 03:03:53;;;;;;;3.58;0.90;;;;;;;28.48;31.30;99566.78;5033691;28;20203;-64
2021/03/06 03:06:24;;;;;;;5.68;1.00;;;;;;;30.21;29.19;99570.19;5033799;28;20265;-63
2021/03/06 03:09:00;;;;;;;2.35;1.00;;;;;;;30.87;27.81;99561.34;5033518;28;20555;-63
2021/03/06 03:11:31;;;;;;;1.25;0.90;;;;;;;30.11;28.92;99568.75;5033479;28;20179;-64
2021/03/06 03:14:00;;;;;;;1.50;0.68;;;;;;;29.63;29.71;99571.66;5033376;28;20192;-63
2021/03/06 03:16:31;;;;;;;2.65;0.95;;;;;;;30.83;27.79;99567.31;5033569;28;20578;-64
2021/03/06 03:19:03;;;;;;;1.83;0.70;;;;;;;30.02;29.00;99563.44;5033056;28;20508;-64
2021/03/06 03:21:33;;;;;;;1.70;0.80;;;;;;;29.39;29.94;99568.09;5032678;28;20230;-63
2021/03/06 03:24:04;;;;;;;2.15;0.90;;;;;;;30.70;28.17;99568.00;5032816;28;20662;-63
2021/03/06 03:26:32;;;;;;;0.70;0.63;;;;;;;30.00;28.94;99561.94;5032862;28;20223;-60
2021/03/06 03:28:59;;;;;;;0.98;0.70;;;;;;;29.45;29.71;99563.88;5032664;28;20228;-64
2021/03/06 03:31:27;;;;;;;1.73;1.00;;;;;;;30.51;28.77;99564.84;5033049;28;20335;-62
2021/03/06 03:33:53;;;;;;;2.78;0.90;;;;;;;30.01;28.42;99569.00;5033250;28;20311;-63
2021/03/06 03:36:23;;;;;;;1.13;0.70;;;;;;;29.51;29.60;99571.22;5032869;28;20200;-62
2021/03/06 03:38:50;;;;;;;1.10;0.60;;;;;;;29.23;30.06;99565.50;5032752;28;20204;-63
2021/03/06 03:41:18;;;;;;;1.20;0.90;;;;;;;31.36;27.83;99563.44;5033209;28;20262;-63
2021/03/06 03:43:45;;;;;;;0.68;0.65;;;;;;;30.05;28.59;99575.72;5033268;28;20207;-71
2021/03/06 03:46:11;;;;;;;1.60;1.00;;;;;;;29.58;29.43;99571.34;5032845;28;20200;-65
2021/03/06 03:48:42;;;;;;;1.70;0.98;;;;;;;30.88;27.84;99573.00;5032851;28;20238;-61
2021/03/06 03:51:08;;;;;;;0.95;0.70;;;;;;;30.05;28.97;99581.13;5032441;28;20242;-65
2021/03/06 03:53:36;;;;;;;1.77;1.02;;;;;;;29.62;29.67;99586.16;5032455;28;20723;-64
2021/03/06 03:56:02;;;;;;;1.02;0.70;;;;;;;29.57;29.82;99583.16;5032582;28;20446;-64
2021/03/06 03:58:28;;;;;;;2.80;0.80;;;;;;;30.29;28.61;99580.03;5032690;28;20204;-62
2021/03/06 04:00:56;;;;;;;3.40;0.80;;;;;;;29.64;29.22;99579.53;5032338;28;20680;-63
2021/03/06 04:03:23;;;;;;;0.95;0.57;;;;;;;29.10;30.27;99587.59;5032094;28;20215;-63
2021/03/06 04:05:49;;;;;;;1.65;0.93;;;;;;;30.57;28.22;99595.63;5031930;28;20690;-63
2021/03/06 04:08:16;;;;;;;1.30;0.70;;;;;;;29.76;29.87;99589.91;5031894;28;20220;-63
2021/03/06 04:10:43;;;;;;;1.65;0.77;;;;;;;29.17;30.02;99588.59;5031918;28;20200;-63
2021/03/06 04:13:09;;;;;;;4.10;0.82;;;;;;;30.56;28.49;99594.81;5032127;28;20203;-63
2021/03/06 04:15:36;;;;;;;1.10;0.70;;;;;;;29.96;29.13;99592.97;5031697;28;20219;-62
2021/03/06 04:18:03;;;;;;;1.55;0.80;;;;;;;29.32;29.88;99586.00;5031914;28;20203;-63
2021/03/06 04:20:31;;;;;;;2.83;0.88;;;;;;;30.07;29.04;99595.25;5031106;28;20277;-63
2021/03/06 04:22:57;;;;;;;3.35;0.75;;;;;;;30.01;29.16;99601.38;5031917;28;20206;-62
2021/03/06 04:25:23;;;;;;;3.80;0.60;;;;;;;29.22;30.22;99593.47;5031560;28;20228;-63
2021/03/06 04:27:50;;;;;;;4.22;0.90;;;;;;;28.95;30.48;99596.41;5031769;28;20257;-63
2021/03/06 04:30:17;;;;;;;2.70;0.75;;;;;;;30.27;28.54;99600.97;5031962;28;20230;-62
2021/03/06 04:32:43;;;;;;;1.85;0.65;;;;;;;29.68;29.13;99597.06;5031765;28;20203;-63
2021/03/06 04:35:11;;;;;;;1.73;0.60;;;;;;;29.03;30.13;99598.25;5031794;28;20224;-62
2021/03/06 04:37:38;;;;;;;2.50;0.80;;;;;;;30.60;28.09;99601.50;5031515;28;20693;-62
2021/03/06 04:40:05;;;;;;;0.93;0.70;;;;;;;29.76;29.01;99601.56;5031374;28;20291;-63
2021/03/06 04:42:31;;;;;;;3.10;1.00;;;;;;;29.28;29.73;99600.84;5031846;28;20591;-63
2021/03/06 04:44:58;;;;;;;2.72;1.35;;;;;;;30.35;28.56;99598.19;5031221;28;20235;-63
2021/03/06 04:47:25;;;;;;;0.95;0.75;;;;;;;29.91;28.92;99606.16;5031304;28;20235;-62
2021/03/06 04:49:51;;;;;;;1.00;0.73;;;;;;;29.47;29.57;99602.25;5031773;28;20226;-63
2021/03/06 04:52:17;;;;;;;2.60;1.02;;;;;;;29.08;30.47;99605.81;5031799;28;20203;-63
2021/03/06 04:54:43;;;;;;;1.60;0.80;;;;;;;30.57;28.16;99601.88;5031204;28;20228;-63
2021/03/06 04:57:11;;;;;;;2.58;0.80;;;;;;;29.65;29.29;99607.34;5031372;28;20283;-63
2021/03/06 04:59:38;;;;;;;3.40;0.90;;;;;;;29.28;29.82;99601.69;5031033;28;20655;-63
2021/03/06 05:02:04;;;;;;;1.73;0.85;;;;;;;30.42;28.29;99617.22;5031512;28;20204;-63
2021/03/06 05:04:31;;;;;;;2.75;0.88;;;;;;;29.46;29.28;99604.13;5031211;28;20683;-63
2021/03/06 05:06:57;;;;;;;2.13;1.10;;;;;;;29.04;29.93;99602.59;5031358;28;20203;-63
2021/03/06 05:09:23;;;;;;;2.22;0.70;;;;;;;30.48;28.36;99605.69;5031533;28;20327;-62
2021/03/06 05:11:49;;;;;;;2.42;0.85;;;;;;;29.85;28.83;99597.78;5031336;28;20707;-63
2021/03/06 05:14:15;;;;;;;1.85;0.80;;;;;;;29.49;29.30;99601.06;5031049;28;20235;-63
2021/03/06 05:16:42;;;;;;;2.35;0.80;;;;;;;29.46;29.41;99601.41;5031346;28;20204;-64
2021/03/06 05:19:09;;;;;;;1.77;0.88;;;;;;;30.26;28.47;99610.09;5031274;28;20228;-62
2021/03/06 05:21:35;;;;;;;1.08;0.80;;;;;;;29.31;29.55;99612.09;5030942;28;20234;-62
2021/03/06 05:24:02;;;;;;;2.22;0.90;;;;;;;28.86;29.82;99613.63;5031322;28;20184;-64
2021/03/06 05:26:28;;;;;;;1.90;0.75;;;;;;;30.43;28.07;99613.50;5031048;28;20295;-64
2021/03/06 05:28:54;;;;;;;2.47;0.80;;;;;;;29.09;29.65;99607.47;5030603;28;20606;-63
2021/03/06 05:31:20;;;;;;;0.93;0.50;;;;;;;28.57;30.46;99608.81;5030137;28;20200;-64
2021/03/06 05:33:46;;;;;;;1.67;0.77;;;;;;;28.29;30.84;99605.66;5030635;28;20208;-63
2021/03/06 05:36:13;;;;;;;1.10;0.85;;;;;;;29.81;29.23;99603.72;5030617;28;20291;-63
2021/03/06 05:38:39;;;;;;;1.65;0.90;;;;;;;31.16;27.26;99611.84;5030589;28;20571;-63
2021/03/06 05:41:05;;;;;;;1.33;0.70;;;;;;;30.06;28.62;99609.75;5030873;28;20204;-63
2021/03/06 05:43:32;;;;;;;2.90;1.00;;;;;;;29.61;29.07;99616.81;5031145;28;20204;-61
2021/03/06 05:45:58;;;;;;;1.23;0.75;;;;;;;30.99;27.97;99613.91;5030659;28;20271;-63
2021/03/06 05:48:24;;;;;;;1.08;0.70;;;;;;;30.77;27.63;99622.91;5030909;28;20296;-64
2021/03/06 05:50:52;;;;;;;1.27;0.70;;;;;;;29.95;28.45;99607.50;5030819;28;20633;-64
2021/03/06 05:53:21;;;;;;;1.73;0.82;;;;;;;29.45;28.99;99605.13;5030539;28;20332;-64
2021/03/06 05:55:51;;;;;;;5.30;0.85;;;;;;;31.18;26.76;99603.53;5030748;28;20323;-63
2021/03/06 05:58:20;;;;;;;1.45;0.63;;;;;;;30.16;27.96;99607.66;5030707;28;20180;-63
2021/03/06 06:00:46;;;;;;;1.38;0.75;;;;;;;29.76;28.84;99604.25;5030275;28;20233;-63
2021/03/06 06:03:15;;;;;;;1.55;0.75;;;;;;;30.89;27.41;99609.78;5030297;28;20204;-64
2021/03/06 06:05:41;;;;;;;1.92;0.80;;;;;;;30.08;28.21;99605.84;5030594;28;20700;-63
2021/03/06 06:08:09;;;;;;;1.75;0.60;;;;;;;29.37;29.17;99602.47;5030203;28;20315;-64
2021/03/06 06:10:36;;;;;;;3.15;0.90;;;;;;;30.29;28.06;99606.19;5030248;28;20210;-64
2021/03/06 06:13:02;;;;;;;0.95;0.57;;;;;;;30.54;27.50;99613.03;5030527;28;20204;-64
2021/03/06 06:15:28;;;;;;;1.02;0.65;;;;;;;29.71;28.61;99610.16;5030393;28;20224;-64
2021/03/06 06:17:55;;;;;;;1.60;0.80;;;;;;;29.52;28.84;99611.47;5030795;28;20203;-63
2021/03/06 06:20:22;;;;;;;1.48;0.75;;;;;;;30.73;27.06;99616.22;5030004;28;20219;-64
2021/03/06 06:22:49;;;;;;;1.17;0.60;;;;;;;29.89;28.37;99620.69;5030690;28;20192;-63
2021/03/06 06:25:31;;;;;;;1.77;0.75;;;;;;;29.50;28.55;99608.13;5030169;28;20232;-63
2021/03/06 06:28:01;;;;;;;1.92;0.60;;;;;;;30.08;27.73;99611.25;5030302;28;20212;-63
2021/03/06 06:30:27;;;;;;;0.82;0.60;;;;;;;29.53;28.17;99612.31;5030334;28;20224;-63
2021/03/06 06:32:54;;;;;;;2.80;0.75;;;;;;;28.84;29.61;99612.94;5030018;28;20642;-62
2021/03/06 06:35:20;;;;;;;2.35;1.00;;;;;;;28.23;30.30;99613.38;5030104;28;20275;-63
2021/03/06 06:37:55;;;;;;;1.25;1.00;;;;;;;28.28;30.16;99612.88;5030185;28;20339;-63
2021/03/06 06:40:23;;;;;;;1.58;0.88;;;;;;;30.40;28.04;99617.38;5030631;28;20661;-70
2021/03/06 06:42:50;;;;;;;3.25;0.80;;;;;;;31.83;26.10;99623.41;5031642;28;20275;-70
2021/03/06 06:45:18;;;;;;;3.45;0.70;;;;;;;32.66;25.57;99625.56;5034026;28;20645;-70
2021/03/06 06:47:46;;;;;;;1.55;0.77;;;;;;;33.14;25.11;99628.31;5034226;28;20282;-71
2021/03/06 06:50:13;;;;;;;6.70;0.90;;;;;;;32.04;25.58;99629.81;5033691;28;20231;-69
2021/03/06 06:52:40;;;;;;;10.23;0.82;;;;;;;31.39;26.74;99627.03;5034378;28;20200;-70
2021/03/06 06:55:08;;;;;;;2.65;0.80;;;;;;;31.77;26.31;99628.75;5033662;28;20319;-68
2021/03/06 06:57:47;;;;;;;9.63;0.98;;;;;;;32.96;25.61;99622.63;5034087;28;20708;-69
2021/03/06 07:00:15;;;;;;;9.13;1.40;;;;;;;32.26;26.82;99619.84;5035565;28;20253;-69
2021/03/06 07:02:53;;;;;;;10.10;1.15;;;;;;;31.06;28.08;99626.66;5034717;28;20242;-70
2021/03/06 07:05:27;;;;;;;11.55;1.02;;;;;;;30.42;28.76;99630.69;5034087;28;20647;-73
2021/03/06 07:07:53;;;;;;;3.42;1.10;;;;;;;31.40;27.16;99636.00;5034213;28;20254;-71
2021/03/06 07:10:21;;;;;;;12.75;0.93;;;;;;;30.96;28.04;99632.34;5033502;28;20571;-70
2021/03/06 07:12:57;;;;;;;5.22;1.00;;;;;;;30.78;28.30;99643.50;5033863;28;20211;-70
2021/03/06 07:15:25;;;;;;;2.65;0.82;;;;;;;30.55;28.87;99636.31;5033651;28;20227;-70
2021/03/06 07:17:53;;;;;;;7.57;1.33;;;;;;;32.08;26.37;99642.81;5033928;28;20250;-70
2021/03/06 07:20:34;;;;;;;3.85;0.80;;;;;;;31.87;27.13;99642.78;5032963;28;20282;-70
2021/03/06 07:23:12;;;;;;;4.50;0.77;;;;;;;30.94;28.29;99648.75;5032843;28;20235;-71
2021/03/06 07:25:39;;;;;;;5.22;0.85;;;;;;;30.76;28.79;99648.22;5033206;28;20275;-70
2021/03/06 07:28:05;;;;;;;4.88;0.88;;;;;;;32.64;25.82;99660.13;5033540;28;20227;-70
2021/03/06 07:30:32;;;;;;;7.03;1.33;;;;;;;31.83;27.35;99652.31;5032888;28;20715;-70
2021/03/06 07:33:03;;;;;;;4.75;0.60;;;;;;;30.87;27.89;99661.28;5033128;28;20195;-71
2021/03/06 07:35:33;;;;;;;3.58;0.88;;;;;;;30.37;28.86;99660.09;5033071;28;20228;-71
2021/03/06 07:38:00;;;;;;;2.10;0.82;;;;;;;32.26;26.62;99655.88;5033355;28;20667;-71
2021/03/06 07:40:30;;;;;;;1.90;0.70;;;;;;;32.38;25.79;99658.03;5033616;28;20200;-71
2021/03/06 07:42:59;;;;;;;1.38;0.70;;;;;;;31.22;27.94;99664.25;5034749;28;20282;-70
2021/03/06 07:45:27;;;;;;;3.00;0.85;;;;;;;30.61;28.55;99670.66;5033538;28;20227;-71
2021/03/06 07:47:56;;;;;;;1.75;0.60;;;;;;;32.37;26.70;99668.00;5034003;28;20270;-71
2021/03/06 07:50:26;;;;;;;6.25;0.90;;;;;;;32.23;26.35;99674.38;5033345;28;20207;-67
2021/03/06 07:52:53;;;;;;;2.72;0.90;;;;;;;30.98;27.94;99677.03;5034428;28;20243;-70
2021/03/06 07:55:20;;;;;;;1.95;0.70;;;;;;;30.69;28.47;99674.28;5033147;28;20323;-70
2021/03/06 07:58:04;;;;;;;2.22;0.70;;;;;;;32.34;26.67;99670.28;5033247;28;20622;-70
2021/03/06 08:00:48;;;;;;;5.47;0.90;;;;;;;32.42;26.68;99672.84;5032311;28;20238;-71
2021/03/06 08:03:37;;;;;;;1.52;1.10;;;;;;;31.21;27.99;99675.25;5032590;28;20578;-70
2021/03/06 08:06:22;;;;;;;3.08;0.90;;;;;;;30.85;28.64;99682.22;5032400;28;20307;-68
2021/03/06 08:08:58;;;;;;;1.77;0.75;;;;;;;32.79;26.42;99668.13;5033422;28;20545;-71
2021/03/06 08:11:25;;;;;;;2.85;1.45;;;;;;;30.58;19.92;99676.44;5032537;28;20199;-70
2021/03/06 08:13:53;;;;;;;6.22;1.70;;;;;;;29.63;26.20;99671.38;5032573;28;20383;-69
2021/03/06 08:16:40;;;;;;;6.13;1.70;;;;;;;30.06;28.52;99669.06;5032286;28;20299;-71
2021/03/06 08:19:25;;;;;;;10.10;1.50;;;;;;;32.39;25.10;99667.81;5033001;28;20672;-71
2021/03/06 08:21:53;;;;;;;11.95;1.55;;;;;;;31.34;26.71;99672.72;5032613;28;20291;-71
2021/03/06 08:24:26;;;;;;;8.85;1.40;;;;;;;30.64;28.55;99682.94;5032482;28;20224;-74
2021/03/06 08:27:14;;;;;;;13.15;1.30;;;;;;;31.40;27.74;99676.56;5032448;28;20632;-74
2021/03/06 08:29:41;;;;;;;7.20;1.30;;;;;;;32.97;25.08;99678.47;5032219;28;20297;-75
2021/03/06 08:32:12;;;;;;;7.32;1.55;;;;;;;31.61;27.39;99679.34;5031917;28;20381;-75
2021/03/06 08:34:40;;;;;;;10.45;1.42;;;;;;;30.61;27.76;99684.16;5032731;28;20582;-73
2021/03/06 08:37:32;;;;;;;15.35;1.88;;;;;;;30.13;28.53;99670.06;5031908;28;20337;-72
2021/03/06 08:40:01;;;;;;;10.80;1.33;;;;;;;30.45;28.26;99684.31;5031846;28;20334;-77
2021/03/06 08:42:29;;;;;;;22.10;1.58;;;;;;;30.15;28.51;99677.97;5032495;28;20219;-76
2021/03/06 08:44:57;;;;;;;4.32;1.27;;;;;;;29.52;29.88;99681.53;5032065;28;20307;-76
2021/03/06 08:47:26;;;;;;;6.70;1.42;;;;;;;29.29;29.78;99677.94;5031983;28;20319;-76
2021/03/06 08:49:53;;;;;;;6.43;1.17;;;;;;;28.76;30.48;99681.13;5031789;28;20278;-76
2021/03/06 08:52:20;;;;;;;7.53;1.50;;;;;;;30.68;28.18;99686.09;5031296;28;20212;-76
2021/03/06 08:54:48;;;;;;;5.22;1.70;;;;;;;32.21;26.39;99685.38;5031855;28;20657;-76
2021/03/06 08:57:29;;;;;;;6.70;1.27;;;;;;;32.88;25.04;99685.91;5031914;28;20432;-74
2021/03/06 08:59:55;;;;;;;4.10;1.00;;;;;;;33.46;24.61;99684.75;5031728;28;20606;-74
2021/03/06 09:02:26;;;;;;;7.95;1.60;;;;;;;31.95;26.35;99693.22;5031580;28;20307;-74
2021/03/06 09:05:09;;;;;;;8.82;1.40;;;;;;;31.25;27.68;99684.69;5031710;28;20330;-74
2021/03/06 09:07:37;;;;;;;9.60;1.42;;;;;;;31.49;27.52;99681.66;5031373;28;20670;-74
2021/03/06 09:10:30;;;;;;;9.38;1.40;;;;;;;32.78;26.38;99683.56;5031482;28;20291;-74
2021/03/06 09:12:59;;;;;;;8.38;1.75;;;;;;;31.47;26.18;99686.41;5031358;28;20705;-74
2021/03/06 09:15:37;;;;;;;10.02;1.77;;;;;;;30.95;27.15;99688.22;5032827;28;20739;-74
2021/03/06 09:18:06;;;;;;;9.60;1.77;;;;;;;32.28;25.13;99683.56;5032324;28;20185;-74
2021/03/06 09:20:38;;;;;;;10.57;1.83;;;;;;;32.18;24.72;99674.94;5030980;28;20319;-74
2021/03/06 09:23:05;;;;;;;2.90;1.30;;;;;;;31.35;26.02;99675.25;5032124;28;20220;-75
2021/03/06 09:25:35;;;;;;;2.75;1.40;;;;;;;30.82;26.97;99685.28;5032056;28;20314;-74
2021/03/06 09:28:03;;;;;;;5.35;1.40;;;;;;;32.86;24.71;99673.59;5030988;28;20211;-75
2021/03/06 09:30:32;;;;;;;4.35;1.52;;;;;;;31.50;25.40;99677.09;5031210;28;20243;-74
2021/03/06 09:32:59;;;;;;;3.35;1.25;;;;;;;30.98;25.94;99677.03;5031357;28;20354;-74
2021/03/06 09:35:25;;;;;;;6.00;1.30;;;;;;;31.89;25.19;99665.91;5031221;28;20239;-74
2021/03/06 09:38:07;;;;;;;4.78;1.60;;;;;;;32.34;24.81;99659.44;5031368;28;20593;-74
2021/03/06 09:40:41;;;;;;;3.08;1.20;;;;;;;31.20;25.62;99660.09;5030844;28;20243;-74
2021/03/06 09:43:08;;;;;;;3.95;1.60;;;;;;;30.91;24.62;99667.13;5031090;28;20195;-74
2021/03/06 09:45:34;;;;;;;10.13;1.98;;;;;;;30.90;24.88;99665.47;5031352;28;20252;-75
2021/03/06 09:48:06;;;;;;;5.35;1.33;;;;;;;30.16;26.85;99653.50;5031673;28;20220;-74
2021/03/06 09:50:32;;;;;;;6.97;1.20;;;;;;;31.20;26.38;99650.13;5031210;28;20196;-74
2021/03/06 09:53:17;;;;;;;7.65;1.20;;;;;;;32.14;25.10;99664.69;5031450;28;20287;-74
2021/03/06 09:55:45;;;;;;;4.60;0.95;;;;;;;32.60;25.10;99656.94;5031326;28;20763;-74
2021/03/06 09:58:23;;;;;;;6.35;1.08;;;;;;;33.09;25.33;99659.75;5032000;28;20273;-75
2021/03/06 10:00:50;;;;;;;5.78;1.00;;;;;;;33.31;24.81;99658.66;5031591;28;20192;-70
2021/03/06 10:03:30;;;;;;;6.88;1.00;;;;;;;33.07;25.08;99657.25;5032137;28;20188;-69
2021/03/06 10:05:58;;;;;;;9.02;2.10;;;;;;;32.33;25.98;99655.91;5033746;28;20334;-72
2021/03/06 10:08:25;;;;;;;7.05;1.35;;;;;;;31.55;26.44;99658.47;5037646;28;20212;-70
2021/03/06 10:10:54;;;;;;;8.50;1.08;;;;;;;32.62;25.64;99654.91;5043557;28;20215;-70
2021/03/06 10:13:21;;;;;;;3.92;1.40;;;;;;;33.67;24.92;99646.66;5047152;28;20231;-70
2021/03/06 10:15:48;;;;;;;9.57;1.27;;;;;;;32.33;23.91;99655.91;5041352;28;20239;-70
2021/03/06 10:18:15;;;;;;;4.93;1.45;;;;;;;31.54;26.45;99648.66;5040925;28;20682;-72
2021/03/06 10:20:41;;;;;;;3.35;1.23;;;;;;;31.39;27.09;99643.25;5042603;28;20208;-72
2021/03/06 10:23:07;;;;;;;3.70;1.20;;;;;;;32.23;25.54;99640.00;5037757;28;20203;-72
2021/03/06 10:25:34;;;;;;;5.38;1.00;;;;;;;32.73;24.79;99647.28;5034694;28;20307;-71
2021/03/06 10:28:10;;;;;;;3.28;1.05;;;;;;;33.28;25.41;99648.22;5034827;28;20219;-71
2021/03/06 10:30:39;;;;;;;3.97;1.00;;;;;;;33.54;24.43;99643.91;5034425;28;20562;-71
2021/03/06 10:33:07;;;;;;;2.50;1.02;;;;;;;32.79;25.60;99650.03;5034920;28;20214;-70
2021/03/06 10:35:37;;;;;;;1.98;1.08;;;;;;;31.61;26.80;99644.19;5034693;28;20224;-71
2021/03/06 10:38:05;;;;;;;0.95;0.73;;;;;;;31.06;27.63;99640.16;5034842;28;20196;-70
2021/03/06 10:40:49;;;;;;;6.38;1.10;;;;;;;33.08;25.68;99634.53;5035423;28;20208;-68
2021/03/06 10:43:29;;;;;;;6.25;1.20;;;;;;;31.90;26.99;99643.22;5034668;28;20188;-69
2021/03/06 10:46:07;;;;;;;5.95;1.45;;;;;;;31.29;27.64;99638.19;5035356;28;20311;-68
2021/03/06 10:48:34;;;;;;;1.88;1.10;;;;;;;31.56;24.33;99640.38;5036495;28;20220;-70
2021/03/06 10:51:01;;;;;;;11.30;1.77;;;;;;;32.73;24.29;99645.41;5039633;28;20295;-69
2021/03/06 10:53:28;;;;;;;6.05;1.40;;;;;;;32.42;23.52;99641.19;5040064;28;20204;-70
2021/03/06 10:55:54;;;;;;;8.95;1.20;;;;;;;31.36;26.48;99638.25;5033913;28;20318;-69
2021/03/06 10:58:40;;;;;;;5.95;1.20;;;;;;;30.85;26.98;99644.44;5033942;28;20272;-71
2021/03/06 11:01:07;;;;;;;3.47;1.10;;;;;;;32.92;24.53;99643.00;5033647;28;20560;-69
2021/03/06 11:03:40;;;;;;;3.15;1.13;;;;;;;31.40;26.39;99628.75;5034328;28;20346;-68
2021/03/06 11:06:06;;;;;;;7.38;1.10;;;;;;;30.86;27.50;99635.31;5033893;28;20224;-70
2021/03/06 11:08:32;;;;;;;2.80;1.20;;;;;;;31.64;26.85;99630.28;5033885;28;20311;-70
2021/03/06 11:10:59;;;;;;;5.38;1.13;;;;;;;32.18;26.59;99630.81;5033523;28;20291;-70
2021/03/06 11:13:37;;;;;;;4.93;1.77;;;;;;;30.63;27.96;99627.28;5034293;28;20394;-69
2021/03/06 11:16:04;;;;;;;4.57;1.10;;;;;;;30.42;28.32;99631.53;5033628;28;20224;-72
2021/03/06 11:18:32;;;;;;;3.45;1.05;;;;;;;31.31;27.52;99630.72;5033641;28;20235;-72
2021/03/06 11:20:58;;;;;;;4.75;1.27;;;;;;;33.19;25.78;99623.16;5033321;28;20230;-71
2021/03/06 11:23:24;;;;;;;5.65;1.00;;;;;;;31.88;26.47;99620.13;5033353;28;20691;-71
2021/03/06 11:25:50;;;;;;;1.52;0.80;;;;;;;30.87;27.81;99628.88;5033837;28;20228;-71
2021/03/06 11:28:16;;;;;;;6.80;0.93;;;;;;;30.30;28.56;99611.41;5033284;28;20223;-71
2021/03/06 11:30:45;;;;;;;2.85;1.08;;;;;;;32.31;25.92;99611.97;5033130;28;20279;-71
2021/03/06 11:33:14;;;;;;;2.40;0.77;;;;;;;32.77;25.94;99614.16;5033484;28;20295;-71
2021/03/06 11:35:42;;;;;;;1.67;0.85;;;;;;;31.22;26.97;99614.81;5032959;28;20346;-70
2021/03/06 11:38:10;;;;;;;3.00;1.05;;;;;;;30.57;28.05;99618.06;5033631;28;20279;-73
2021/03/06 11:40:39;;;;;;;3.28;0.90;;;;;;;31.45;27.75;99606.53;5033659;28;20250;-69
2021/03/06 11:43:05;;;;;;;4.85;1.10;;;;;;;32.51;26.37;99608.56;5033481;28;20234;-69